Terminal Aerodrome Forecast
Issued by NWS

Home | Current Version | Previous Version | Text Only | Print | Product List | Glossary On
Versions: 1 2 3 4 5 6 7 8 9 10 11 12 13 14 15 16 17 18
000
FTUS43 KMQT 281733
TAFSAW
TAF
KSAW 281733Z 2818/2918 19014G20KT P6SM SCT025 OVC050
      TEMPO 2822/2902 BKN025
     FM290200 18011G17KT P6SM -SN OVC020
     FM290500 18009KT 2SM -SN BR OVC008
     FM290900 18004KT 1SM -SN BR OVC004
     FM291100 25004KT 3SM BR OVC006
     FM291400 33012G19KT P6SM OVC010
      AMD LTD TO CLD VIS AND WIND 2903/2911=

USA.gov is the U.S. government's official web portal to all federal, state and local government web resources and services.